createdAt,value
2019-03-12T19:20:26.590Z,37.40
2019-03-12T19:22:56.575Z,38.10
2019-03-12T19:25:29.794Z,37.90
2019-03-12T19:28:00.624Z,37.80
2019-03-12T19:30:31.098Z,37.70
2019-03-12T19:33:12.979Z,38.10
2019-03-12T19:35:42.875Z,37.40
2019-03-12T19:38:12.905Z,37.20
2019-03-12T19:40:48.784Z,37.10
2019-03-12T19:43:19.023Z,36.70
2019-03-12T19:45:49.333Z,36.50
2019-03-12T19:48:19.228Z,36.50
2019-03-12T19:50:49.123Z,36.30
2019-03-12T19:53:19.996Z,36.30
2019-03-12T19:55:59.624Z,36.30
2019-03-12T19:58:29.555Z,36.10
2019-03-12T20:01:00.235Z,36.10
2019-03-12T20:03:30.169Z,36.00
2019-03-12T20:06:00.095Z,36.00
2019-03-12T20:08:30.127Z,35.90
2019-03-12T20:11:22.156Z,36.20
2019-03-12T20:14:14.700Z,36.20
2019-03-12T20:17:09.088Z,36.30
2019-03-12T20:19:53.979Z,36.50
2019-03-12T20:22:59.790Z,36.40
2019-03-12T20:25:54.268Z,36.50
2019-03-12T20:28:49.940Z,36.60
2019-03-12T20:31:24.052Z,36.50
2019-03-12T20:34:16.164Z,36.50
2019-03-12T20:37:22.585Z,36.40
2019-03-12T20:44:54.936Z,32.90
2019-03-12T20:47:44.822Z,33.10
2019-03-12T20:50:52.951Z,33.50
2019-03-12T20:53:35.192Z,33.60
2019-03-12T20:56:29.368Z,33.80
2019-03-12T20:59:37.408Z,33.80
2019-03-12T21:02:11.039Z,34.00
2019-03-12T21:04:59.356Z,34.40
2019-03-12T21:08:00.843Z,34.60
2019-03-12T21:10:52.947Z,34.90
2019-03-12T21:13:38.119Z,35.10
2019-03-12T21:16:11.468Z,35.20
2019-03-12T21:18:56.922Z,35.40
2019-03-12T21:22:03.265Z,35.40
2019-03-12T21:24:33.758Z,35.60
2019-03-12T21:27:19.023Z,35.70
2019-03-12T21:29:51.335Z,35.70
2019-03-12T21:32:21.209Z,35.80
2019-03-12T21:34:51.206Z,35.90
2019-03-12T21:37:21.314Z,35.90
2019-03-12T21:39:55.784Z,35.90
2019-03-12T21:42:25.279Z,36.00
2019-03-12T21:44:54.990Z,36.00
2019-03-12T21:47:25.238Z,36.00
2019-03-12T21:49:55.114Z,36.00
2019-03-12T21:52:25.518Z,36.00
2019-03-12T21:54:55.518Z,36.20
2019-03-12T21:57:25.856Z,36.20
2019-03-12T21:59:56.282Z,36.10
2019-03-12T22:02:26.126Z,36.20
2019-03-12T22:04:56.285Z,36.20
2019-03-12T22:07:26.312Z,36.30
2019-03-12T22:09:56.761Z,36.20
2019-03-12T22:12:26.643Z,36.20
2019-03-12T22:14:56.560Z,36.20
2019-03-12T22:17:26.421Z,36.20
2019-03-12T22:19:56.291Z,36.20
2019-03-12T22:22:27.871Z,36.20
2019-03-12T22:24:57.805Z,36.30
2019-03-12T22:27:28.007Z,36.30
2019-03-12T22:29:58.022Z,36.40
2019-03-12T22:32:28.319Z,36.40
2019-03-12T22:34:58.185Z,36.30
2019-03-12T22:37:29.172Z,36.40
2019-03-12T22:39:59.116Z,36.40
2019-03-12T22:42:29.439Z,35.90
2019-03-12T22:44:59.356Z,36.40
2019-03-12T22:47:29.358Z,36.50
2019-03-12T22:49:59.360Z,36.50
2019-03-12T22:52:29.276Z,36.50
2019-03-12T22:54:59.221Z,36.40
2019-03-12T22:57:29.524Z,36.50
2019-03-12T23:00:21.323Z,36.50
2019-03-12T23:03:09.078Z,36.60
2019-03-12T23:05:57.119Z,36.60
2019-03-12T23:08:45.287Z,36.70
2019-03-12T23:11:17.147Z,36.70
2019-03-12T23:13:47.951Z,36.70
2019-03-12T23:16:19.404Z,36.70
2019-03-12T23:18:49.654Z,36.70
2019-03-12T23:21:19.847Z,36.80
2019-03-12T23:23:49.721Z,36.90
2019-03-12T23:26:19.882Z,36.90
2019-03-12T23:28:49.860Z,37.00
2019-03-12T23:31:20.256Z,36.90
2019-03-12T23:33:50.271Z,37.00
2019-03-12T23:36:20.150Z,37.00
2019-03-12T23:38:50.067Z,36.90
2019-03-12T23:41:19.873Z,37.00
2019-03-12T23:43:50.136Z,36.90
2019-03-12T23:46:20.428Z,37.00
2019-03-12T23:48:50.344Z,37.10
2019-03-12T23:51:20.296Z,37.00
2019-03-12T23:53:50.613Z,37.00
2019-03-12T23:56:20.502Z,37.00
2019-03-12T23:58:50.414Z,37.10
